Time;durP1;ratioP1;P1;durP2;ratioP2;P2;SDS_P1;SDS_P2;PMS_P1;PMS_P2;Temp;Humidity;BMP_temperature;BMP_pressure;BME280_temperature;BME280_humidity;BME280_pressure;Samples;Min_cycle;Max_cycle;Signal;HPM_P1;HPM_P2
2023/12/26 00:01:15;;;;;;;23.03;21.50;;;;;;;-141.02;87.43;40525.34;5092964;28;20197;-73
2023/12/26 00:03:42;;;;;;;23.50;21.90;;;;;;;-141.02;88.03;40521.50;5092841;28;20610;-73
2023/12/26 00:06:09;;;;;;;22.80;21.20;;;;;;;-141.02;88.75;40510.00;5092808;28;20198;-73
2023/12/26 00:08:37;;;;;;;22.47;20.93;;;;;;;-141.02;88.65;40533.03;5092823;28;20193;-73
2023/12/26 00:11:06;;;;;;;23.60;22.00;;;;;;;-141.02;88.81;40527.28;5093008;28;20261;-73
2023/12/26 00:13:33;;;;;;;22.90;21.40;;;;;;;-141.02;91.39;40519.59;5093097;28;20194;-73
2023/12/26 00:16:00;;;;;;;22.87;21.37;;;;;;;-141.02;93.39;40531.09;5092979;28;20708;-72
2023/12/26 00:18:27;;;;;;;22.37;20.87;;;;;;;-141.02;93.33;40502.34;5092574;28;20233;-73
2023/12/26 00:20:54;;;;;;;22.40;20.90;;;;;;;-141.02;95.30;40525.34;5092904;28;20246;-73
2023/12/26 00:23:21;;;;;;;21.83;20.43;;;;;;;-141.02;94.86;40498.50;5092885;28;20204;-73
2023/12/26 00:25:48;;;;;;;22.30;20.90;;;;;;;-141.02;92.31;40517.69;5093600;28;20263;-74
2023/12/26 00:28:19;;;;;;;22.67;21.17;;;;;;;-141.02;87.97;40529.19;5092609;28;20229;-73
2023/12/26 00:30:46;;;;;;;23.77;22.27;;;;;;;-141.02;86.71;40552.22;5092451;28;20259;-73
2023/12/26 00:33:13;;;;;;;23.83;22.23;;;;;;;-141.02;84.48;40529.19;5092358;28;20625;-73
2023/12/26 00:35:40;;;;;;;24.03;22.40;;;;;;;-141.02;84.75;40569.47;5092365;28;20746;-72
2023/12/26 00:38:07;;;;;;;23.50;21.90;;;;;;;-141.02;85.69;40525.34;5092653;28;20258;-73
2023/12/26 00:40:36;;;;;;;24.10;22.40;;;;;;;-141.02;85.37;40559.88;5092645;28;20205;-73
2023/12/26 00:43:03;;;;;;;24.67;22.97;;;;;;;-141.02;87.07;40575.22;5092630;28;20201;-72
2023/12/26 00:45:31;;;;;;;23.60;22.00;;;;;;;-141.02;90.67;40548.38;5092230;28;20198;-73
2023/12/26 00:47:58;;;;;;;22.77;21.27;;;;;;;-141.02;92.86;40557.97;5092164;28;20561;-73
2023/12/26 00:50:25;;;;;;;22.90;21.40;;;;;;;-141.02;93.76;40531.09;5091498;28;20252;-73
2023/12/26 00:52:52;;;;;;;22.53;21.03;;;;;;;-141.02;92.81;40533.03;5092583;28;20194;-73
2023/12/26 00:55:19;;;;;;;23.43;21.93;;;;;;;-141.02;88.83;40556.03;5092441;28;20201;-73
2023/12/26 00:57:46;;;;;;;22.77;21.27;;;;;;;-141.02;86.65;40540.69;5092364;28;20204;-73
2023/12/26 01:00:15;;;;;;;23.40;21.80;;;;;;;-141.02;84.37;40575.22;5092082;28;20201;-73
2023/12/26 01:02:43;;;;;;;23.00;21.40;;;;;;;-141.02;83.27;40575.22;5091954;28;20197;-73
2023/12/26 01:05:10;;;;;;;23.20;21.60;;;;;;;-141.02;81.73;40567.56;5093182;28;20233;-73
2023/12/26 01:07:38;;;;;;;23.97;22.27;;;;;;;-141.02;80.96;40573.31;5092046;28;20201;-73
2023/12/26 01:10:06;;;;;;;23.70;22.00;;;;;;;-141.02;80.73;40579.06;5092137;28;20631;-73
2023/12/26 01:12:33;;;;;;;24.10;22.40;;;;;;;-141.02;80.22;40590.59;5092302;28;20201;-73
2023/12/26 01:15:00;;;;;;;25.00;23.20;;;;;;;-141.02;80.57;40602.09;5092245;28;20228;-73
2023/12/26 01:17:27;;;;;;;23.47;21.77;;;;;;;-141.02;81.92;40584.81;5092209;28;20194;-73
2023/12/26 01:19:56;;;;;;;24.40;22.60;;;;;;;-141.02;85.42;40596.34;5091930;28;20198;-74
2023/12/26 01:22:23;;;;;;;23.03;21.43;;;;;;;-141.02;88.05;40594.41;5091877;28;20197;-75
2023/12/26 01:24:50;;;;;;;23.60;22.00;;;;;;;-141.02;86.20;40592.50;5092198;28;20197;-73
2023/12/26 01:27:17;;;;;;;23.70;22.00;;;;;;;-141.02;85.39;40577.16;5091697;28;20728;-73
2023/12/26 01:29:44;;;;;;;23.23;21.60;;;;;;;-141.02;86.55;40590.59;5092109;28;20286;-73
2023/12/26 01:32:12;;;;;;;23.43;21.83;;;;;;;-141.02;87.15;40602.09;5092020;28;20265;-73
2023/12/26 01:34:39;;;;;;;23.13;21.43;;;;;;;-141.02;83.97;40590.59;5092011;28;20196;-73
2023/12/26 01:37:07;;;;;;;22.70;21.10;;;;;;;-141.02;84.40;40598.25;5091990;28;20605;-73
2023/12/26 01:39:34;;;;;;;23.60;22.00;;;;;;;-141.02;83.79;40598.25;5092028;28;20259;-73
2023/12/26 01:42:01;;;;;;;23.13;21.53;;;;;;;-141.02;86.02;40600.16;5091791;28;20258;-72
2023/12/26 01:44:28;;;;;;;24.00;22.30;;;;;;;-141.02;85.42;40625.13;5091661;28;20285;-71
2023/12/26 01:46:55;;;;;;;23.80;22.10;;;;;;;-141.02;83.87;40598.25;5092001;28;20198;-73
2023/12/26 01:49:22;;;;;;;23.80;22.10;;;;;;;-141.02;82.99;40609.75;5091580;28;20717;-73
2023/12/26 01:51:51;;;;;;;24.10;22.40;;;;;;;-141.02;83.66;40630.88;5091799;28;20259;-74
2023/12/26 01:54:23;;;;;;;24.00;22.30;;;;;;;-141.02;80.37;40609.75;5091651;28;20683;-73
2023/12/26 01:56:50;;;;;;;23.87;22.17;;;;;;;-141.02;79.66;40628.94;5091606;28;20186;-73
2023/12/26 01:59:17;;;;;;;24.10;22.40;;;;;;;-141.02;79.86;40646.22;5091579;28;20193;-73
2023/12/26 02:01:45;;;;;;;24.67;22.87;;;;;;;-141.02;79.79;40613.59;5091993;28;20288;-73
2023/12/26 02:04:12;;;;;;;23.90;22.20;;;;;;;-141.02;80.40;40634.72;5095771;28;20198;-73
2023/12/26 02:06:40;;;;;;;24.90;23.20;;;;;;;-141.02;81.93;40644.28;5095460;28;20220;-73
2023/12/26 02:09:10;;;;;;;24.50;22.80;;;;;;;-141.02;85.18;40638.53;5095111;28;20194;-72
2023/12/26 02:11:39;;;;;;;23.73;22.13;;;;;;;-141.02;87.80;40632.78;5095091;28;20225;-73
2023/12/26 02:14:07;;;;;;;23.70;22.10;;;;;;;-141.02;88.05;40627.03;5095086;28;20198;-73
2023/12/26 02:16:38;;;;;;;23.60;22.00;;;;;;;-141.02;88.84;40644.28;5095347;28;20229;-74
2023/12/26 02:19:05;;;;;;;23.00;21.50;;;;;;;-141.02;90.78;40617.44;5095015;28;20659;-72
2023/12/26 02:21:34;;;;;;;22.70;21.20;;;;;;;-141.02;91.90;40605.94;5094920;28;20289;-74
2023/12/26 02:24:02;;;;;;;22.30;20.80;;;;;;;-141.02;93.56;40594.41;5094881;28;20651;-73
2023/12/26 02:26:31;;;;;;;22.40;20.90;;;;;;;-141.02;94.03;40617.44;5094841;28;20675;-73
2023/12/26 02:29:00;;;;;;;23.00;21.50;;;;;;;-141.02;94.22;40605.94;5094701;28;20261;-73
2023/12/26 02:31:28;;;;;;;21.90;20.50;;;;;;;-141.02;92.98;40582.91;5094556;28;20229;-74
2023/12/26 02:33:55;;;;;;;22.60;21.10;;;;;;;-141.02;92.91;40617.44;5094697;28;20194;-73
2023/12/26 02:36:23;;;;;;;22.73;21.23;;;;;;;-141.02;94.20;40582.91;5094592;28;20247;-71
2023/12/26 02:38:50;;;;;;;22.03;20.63;;;;;;;-141.02;93.23;40609.75;5094875;28;20197;-73
2023/12/26 02:41:18;;;;;;;22.30;20.80;;;;;;;-141.02;93.21;40598.25;5094589;28;20244;-73
2023/12/26 02:43:45;;;;;;;22.27;20.87;;;;;;;-141.02;93.21;40598.25;5094497;28;20198;-73
2023/12/26 02:46:12;;;;;;;22.53;21.03;;;;;;;-141.02;92.29;40605.94;5094490;28;20194;-73
2023/12/26 02:48:39;;;;;;;22.50;21.00;;;;;;;-141.02;90.93;40609.75;5094670;28;20262;-73
2023/12/26 02:51:08;;;;;;;22.17;20.70;;;;;;;-141.02;89.52;40604.00;5094609;28;20234;-73
2023/12/26 02:53:35;;;;;;;22.87;21.37;;;;;;;-141.02;91.55;40586.75;5094597;28;20252;-74
2023/12/26 02:56:03;;;;;;;23.23;21.73;;;;;;;-141.02;93.36;40596.34;5094541;28;20705;-73
2023/12/26 02:58:32;;;;;;;23.20;21.70;;;;;;;-141.02;96.14;40582.91;5094200;28;20198;-73
2023/12/26 03:00:59;;;;;;;22.67;21.27;;;;;;;-141.02;98.52;40556.03;5094107;28;20229;-72
2023/12/26 03:03:26;;;;;;;21.53;20.23;;;;;;;-141.02;98.98;40548.38;5094104;28;20196;-73
2023/12/26 03:05:53;;;;;;;22.00;20.70;;;;;;;-141.02;98.38;40544.53;5093985;28;20660;-73
2023/12/26 03:08:20;;;;;;;22.13;20.73;;;;;;;-141.02;98.14;40540.69;5094339;28;20226;-73
2023/12/26 03:10:47;;;;;;;20.80;19.50;;;;;;;-141.02;99.98;40513.84;5094154;28;20225;-73
2023/12/26 03:13:14;;;;;;;21.07;19.77;;;;;;;-141.02;100.00;40496.56;5093097;28;20591;-74
2023/12/26 03:15:42;;;;;;;20.53;19.33;;;;;;;-141.02;100.00;40379.56;5094076;28;20221;-74
2023/12/26 03:18:09;;;;;;;19.90;18.70;;;;;;;-141.02;100.00;40149.38;5094075;28;20190;-71
2023/12/26 03:20:36;;;;;;;18.60;17.60;;;;;;;-141.02;100.00;39999.75;5094138;28;20189;-72
2023/12/26 03:23:04;;;;;;;18.80;17.80;;;;;;;-141.02;100.00;39903.84;5093745;28;20198;-73
2023/12/26 03:25:31;;;;;;;18.20;17.20;;;;;;;-141.02;100.00;39848.22;5093932;28;20253;-73
2023/12/26 03:27:58;;;;;;;18.33;17.33;;;;;;;-141.02;100.00;39900.00;5093482;28;20226;-73
2023/12/26 03:30:25;;;;;;;18.37;17.37;;;;;;;-141.02;100.00;39911.50;5093806;28;20236;-74
2023/12/26 03:32:53;;;;;;;17.07;16.17;;;;;;;-141.02;100.00;39934.53;5093658;28;20274;-73
2023/12/26 03:35:20;;;;;;;18.60;17.60;;;;;;;-141.02;100.00;39932.59;5094014;28;20194;-72
2023/12/26 03:37:47;;;;;;;18.03;17.13;;;;;;;-141.02;100.00;39905.75;5093655;28;20243;-72
2023/12/26 03:40:16;;;;;;;17.80;16.90;;;;;;;-141.02;100.00;39915.34;5093282;28;20190;-73
2023/12/26 03:42:45;;;;;;;17.30;16.40;;;;;;;-141.02;100.00;39915.34;5093589;28;20226;-73
2023/12/26 03:45:13;;;;;;;18.03;17.13;;;;;;;-141.02;100.00;39915.34;5093327;28;20580;-73
2023/12/26 03:47:40;;;;;;;19.10;18.10;;;;;;;-141.02;100.00;39917.25;5093573;28;20200;-73
2023/12/26 03:50:10;;;;;;;18.70;17.70;;;;;;;-141.02;100.00;39896.16;5093530;28;20193;-73
2023/12/26 03:52:37;;;;;;;18.40;17.50;;;;;;;-141.02;100.00;39938.38;5093348;28;20268;-73
2023/12/26 03:55:05;;;;;;;18.23;17.27;;;;;;;-141.02;100.00;39934.53;5093379;28;20227;-73
2023/12/26 03:57:32;;;;;;;17.80;16.90;;;;;;;-141.02;100.00;39861.66;5093046;28;20652;-73
2023/12/26 03:59:59;;;;;;;17.80;16.90;;;;;;;-141.02;100.00;39884.66;5092999;28;20626;-73
2023/12/26 04:02:26;;;;;;;17.47;16.57;;;;;;;-141.02;100.00;39915.34;5093353;28;20255;-72
2023/12/26 04:04:53;;;;;;;18.03;17.03;;;;;;;-141.02;100.00;39921.09;5093139;28;20288;-73
2023/12/26 04:07:21;;;;;;;18.13;17.13;;;;;;;-141.02;100.00;39923.03;5093341;28;20239;-72
2023/12/26 04:09:48;;;;;;;17.43;16.53;;;;;;;-141.02;100.00;39890.41;5092760;28;20237;-74
2023/12/26 04:12:15;;;;;;;16.90;16.00;;;;;;;-141.02;100.00;39838.63;5092677;28;20270;-73
2023/12/26 04:14:42;;;;;;;16.40;15.60;;;;;;;-141.02;100.00;39809.84;5093063;28;20228;-73
2023/12/26 04:17:09;;;;;;;15.73;14.93;;;;;;;-141.02;100.00;39819.44;5093029;28;20237;-73
2023/12/26 04:19:36;;;;;;;16.80;15.90;;;;;;;-141.02;100.00;39855.88;5093044;28;20221;-72
2023/12/26 04:22:03;;;;;;;17.10;16.20;;;;;;;-141.02;100.00;39827.13;5092596;28;20198;-73
2023/12/26 04:24:32;;;;;;;17.03;16.13;;;;;;;-141.02;100.00;39863.56;5092639;28;20236;-72
2023/12/26 04:26:59;;;;;;;17.00;16.10;;;;;;;-141.02;100.00;39827.13;5092589;28;20237;-73
2023/12/26 04:29:26;;;;;;;17.83;16.83;;;;;;;-141.02;100.00;39832.88;5092613;28;20217;-72
2023/12/26 04:31:53;;;;;;;16.80;15.90;;;;;;;-141.02;100.00;39869.31;5092408;28;20312;-72
2023/12/26 04:34:20;;;;;;;17.20;16.30;;;;;;;-141.02;100.00;39827.13;5092450;28;20266;-74
2023/12/26 04:36:47;;;;;;;16.97;16.07;;;;;;;-141.02;100.00;39788.75;5092611;28;20228;-73
2023/12/26 04:39:14;;;;;;;16.10;15.30;;;;;;;-141.02;100.00;39804.09;5092598;28;20221;-73
2023/12/26 04:41:43;;;;;;;16.47;15.77;;;;;;;-141.02;100.00;39800.25;5092631;28;20194;-73
2023/12/26 04:44:10;;;;;;;15.90;15.20;;;;;;;-141.02;100.00;39777.25;5092255;28;20194;-73
2023/12/26 04:46:37;;;;;;;16.97;16.17;;;;;;;-141.02;100.00;39813.69;5092221;28;20682;-73
2023/12/26 04:49:04;;;;;;;17.10;16.20;;;;;;;-141.02;100.00;39861.66;5092168;28;20194;-73
2023/12/26 04:51:31;;;;;;;17.50;16.60;;;;;;;-141.02;100.00;39829.03;5092410;28;20221;-73
2023/12/26 04:53:58;;;;;;;17.03;16.20;;;;;;;-141.02;100.00;39817.53;5093018;28;20259;-73
2023/12/26 04:56:26;;;;;;;17.20;16.30;;;;;;;-141.02;100.00;39811.78;5092367;28;20232;-70
2023/12/26 04:58:55;;;;;;;17.13;16.33;;;;;;;-141.02;100.00;39815.59;5092060;28;20656;-73
2023/12/26 05:01:22;;;;;;;16.80;16.00;;;;;;;-141.02;100.00;39823.28;5092139;28;20229;-73
2023/12/26 05:03:49;;;;;;;17.43;16.53;;;;;;;-141.02;100.00;39815.59;5092627;28;20225;-74
2023/12/26 05:06:21;;;;;;;16.97;16.07;;;;;;;-141.02;100.00;39830.94;5092024;28;20733;-72
2023/12/26 05:08:48;;;;;;;17.50;16.60;;;;;;;-141.02;100.00;39825.19;5092088;28;20186;-73
2023/12/26 05:11:23;;;;;;;17.70;16.80;;;;;;;-141.02;100.00;39846.28;5091893;28;20250;-73
2023/12/26 05:13:50;;;;;;;17.30;16.40;;;;;;;-141.02;100.00;39836.72;5091927;28;20185;-73
2023/12/26 05:16:18;;;;;;;17.30;16.40;;;;;;;-141.02;100.00;39827.13;5091939;28;20228;-73
2023/12/26 05:18:45;;;;;;;17.20;16.30;;;;;;;-141.02;100.00;39807.94;5091915;28;20201;-73
2023/12/26 05:21:18;;;;;;;16.80;15.90;;;;;;;-141.02;100.00;39842.47;5092150;28;20193;-73
2023/12/26 05:23:45;;;;;;;16.80;16.00;;;;;;;-141.02;100.00;39830.94;5091955;28;20240;-73
2023/12/26 05:26:12;;;;;;;16.63;15.83;;;;;;;-141.02;100.00;39800.25;5091760;28;20194;-73
2023/12/26 05:28:39;;;;;;;16.23;15.43;;;;;;;-141.02;100.00;39758.06;5091868;28;20221;-74
2023/12/26 05:31:06;;;;;;;16.27;15.47;;;;;;;-141.02;100.00;39817.53;5091769;28;20197;-72
2023/12/26 05:33:35;;;;;;;16.77;15.97;;;;;;;-141.02;100.00;39857.81;5091984;28;20233;-72
2023/12/26 05:36:02;;;;;;;16.93;16.10;;;;;;;-141.02;100.00;39892.34;5092082;28;20315;-73
2023/12/26 05:38:30;;;;;;;16.00;15.20;;;;;;;-141.02;100.00;39923.03;5095503;28;20247;-74
2023/12/26 05:40:57;;;;;;;16.30;15.50;;;;;;;-141.02;100.00;39965.22;5095675;28;20199;-73
2023/12/26 05:43:24;;;;;;;15.93;15.13;;;;;;;-141.02;100.00;40003.59;5095653;28;20198;-73
2023/12/26 05:45:51;;;;;;;15.17;14.47;;;;;;;-141.02;100.00;40026.59;5095559;28;20189;-73
2023/12/26 05:48:18;;;;;;;14.97;14.27;;;;;;;-141.02;100.00;40043.88;5095636;28;20194;-73
2023/12/26 05:50:46;;;;;;;14.23;13.63;;;;;;;-141.02;100.00;40055.38;5095813;28;20628;-74
2023/12/26 05:53:13;;;;;;;15.07;14.47;;;;;;;-141.02;100.00;40091.81;5095381;28;20696;-73
2023/12/26 05:55:41;;;;;;;15.23;14.63;;;;;;;-141.02;100.00;40134.00;5095375;28;20668;-72
2023/12/26 05:58:08;;;;;;;14.03;13.53;;;;;;;-141.02;100.00;40158.94;5095385;28;20244;-73
2023/12/26 06:00:35;;;;;;;14.23;13.73;;;;;;;-141.02;100.00;40187.72;5095674;28;20225;-74
2023/12/26 06:03:02;;;;;;;14.00;13.40;;;;;;;-141.02;100.00;40235.69;5095387;28;20286;-74
2023/12/26 06:05:29;;;;;;;13.60;13.10;;;;;;;-141.02;100.00;40237.59;5095589;28;20273;-74
2023/12/26 06:07:57;;;;;;;13.23;12.73;;;;;;;-141.02;100.00;40251.03;5095577;28;20190;-74
2023/12/26 06:10:25;;;;;;;13.20;12.70;;;;;;;-141.02;100.00;40295.16;5095675;28;20201;-74
2023/12/26 06:12:52;;;;;;;13.83;13.33;;;;;;;-141.02;100.00;40375.72;5095344;28;20318;-74
2023/12/26 06:15:19;;;;;;;14.77;14.17;;;;;;;-141.02;100.00;40421.75;5095373;28;20247;-74
2023/12/26 06:17:45;;;;;;;14.50;13.90;;;;;;;-141.02;100.00;40417.94;5095019;28;20229;-74
2023/12/26 06:20:14;;;;;;;14.10;13.50;;;;;;;-141.02;100.00;40452.44;5095032;28;20240;-73
2023/12/26 06:22:41;;;;;;;15.13;14.43;;;;;;;-141.02;100.00;40471.63;5095263;28;20193;-74
2023/12/26 06:25:10;;;;;;;15.13;14.43;;;;;;;-141.02;100.00;40471.63;5094862;28;20679;-73
2023/12/26 06:27:37;;;;;;;15.10;14.40;;;;;;;-141.02;100.00;40456.28;5094631;28;20234;-74
2023/12/26 06:30:05;;;;;;;15.80;15.10;;;;;;;-141.02;100.00;40534.94;5094750;28;20194;-74
2023/12/26 06:32:32;;;;;;;15.53;14.83;;;;;;;-141.02;100.00;40515.75;5094618;28;20225;-74
2023/12/26 06:34:59;;;;;;;16.10;15.30;;;;;;;-141.02;100.00;40605.94;5095018;28;20225;-74
2023/12/26 06:37:26;;;;;;;16.50;15.70;;;;;;;-141.02;100.00;40713.38;5094883;28;20221;-75
2023/12/26 06:39:54;;;;;;;16.00;15.20;;;;;;;-141.02;100.00;40782.44;5094575;28;20625;-75
2023/12/26 06:42:23;;;;;;;16.93;16.03;;;;;;;-141.02;100.00;40751.72;5094543;28;20609;-74
2023/12/26 06:44:51;;;;;;;17.77;16.77;;;;;;;-141.02;100.00;40816.97;5094520;28;20702;-73
2023/12/26 06:47:19;;;;;;;17.90;16.90;;;;;;;-141.02;100.00;40801.63;5094742;28;20197;-74
2023/12/26 06:49:46;;;;;;;17.50;16.50;;;;;;;-141.02;100.00;40828.47;5094572;28;20194;-74
2023/12/26 06:52:14;;;;;;;18.00;17.00;;;;;;;-141.02;100.00;40847.66;5094250;28;20682;-73
2023/12/26 06:54:41;;;;;;;18.80;17.70;;;;;;;-141.02;100.00;40826.56;5094265;28;20596;-73
2023/12/26 06:57:15;;;;;;;18.63;17.53;;;;;;;-141.02;100.00;40878.38;5094595;28;20194;-73
2023/12/26 06:59:44;;;;;;;19.60;18.40;;;;;;;-141.02;100.00;40899.47;5094190;28;20186;-73
2023/12/26 07:02:11;;;;;;;19.60;18.40;;;;;;;-141.02;100.00;40924.41;5094150;28;20230;-71
2023/12/26 07:04:38;;;;;;;19.90;18.70;;;;;;;-141.02;100.00;40932.09;5094376;28;20204;-71
2023/12/26 07:07:05;;;;;;;20.17;18.97;;;;;;;-141.02;100.00;40935.91;5094313;28;20228;-71
2023/12/26 07:09:32;;;;;;;20.60;19.30;;;;;;;-141.02;100.00;40928.25;5094050;28;20229;-71
2023/12/26 07:11:59;;;;;;;20.57;19.27;;;;;;;-141.02;100.00;40932.09;5094160;28;20245;-70
2023/12/26 07:14:29;;;;;;;19.93;18.53;;;;;;;-141.02;100.00;40943.59;5093902;28;20680;-70
2023/12/26 07:16:58;;;;;;;19.60;18.20;;;;;;;-141.02;100.00;40943.59;5093822;28;20233;-71
2023/12/26 07:19:24;;;;;;;19.73;18.33;;;;;;;-141.02;100.00;40962.78;5093761;28;20225;-71
2023/12/26 07:21:52;;;;;;;20.50;19.10;;;;;;;-141.02;100.00;40955.09;5093753;28;20236;-73
2023/12/26 07:24:20;;;;;;;20.70;19.20;;;;;;;-141.02;100.00;40968.53;5093814;28;20686;-72
2023/12/26 07:26:47;;;;;;;20.60;19.10;;;;;;;-141.02;100.00;41001.16;5093537;28;20240;-72
2023/12/26 07:29:14;;;;;;;21.00;19.50;;;;;;;-141.02;99.52;41022.25;5094203;28;20701;-73
2023/12/26 07:31:41;;;;;;;20.60;19.10;;;;;;;-141.02;99.37;41012.66;5093609;28;20737;-73
2023/12/26 07:34:11;;;;;;;20.47;18.97;;;;;;;-141.02;99.83;41008.84;5093804;28;20259;-73
2023/12/26 07:36:39;;;;;;;20.70;19.20;;;;;;;-141.02;99.20;40866.84;5093829;28;20194;-73
2023/12/26 07:39:06;;;;;;;20.90;19.40;;;;;;;-141.02;99.09;41070.22;5093387;28;20201;-73
2023/12/26 07:41:33;;;;;;;20.67;19.17;;;;;;;-141.02;99.54;41035.69;5093304;28;20229;-73
2023/12/26 07:44:01;;;;;;;21.13;19.63;;;;;;;-141.02;100.00;41039.53;5093641;28;20251;-73
2023/12/26 07:46:28;;;;;;;21.50;20.00;;;;;;;-141.02;100.00;41010.75;5093201;28;20280;-74
2023/12/26 07:48:55;;;;;;;20.30;18.90;;;;;;;-141.02;100.00;41033.78;5093519;28;20198;-74
2023/12/26 07:51:24;;;;;;;20.90;19.40;;;;;;;-141.02;100.00;41051.03;5093528;28;20194;-74
2023/12/26 07:53:51;;;;;;;21.17;19.67;;;;;;;-141.02;99.88;41051.03;5093542;28;20229;-74
2023/12/26 07:56:18;;;;;;;21.40;19.80;;;;;;;-141.02;100.00;41083.66;5093453;28;20655;-74
2023/12/26 07:58:45;;;;;;;20.80;19.20;;;;;;;-141.02;97.52;41068.31;5093340;28;20267;-74
2023/12/26 08:01:13;;;;;;;21.07;19.47;;;;;;;-141.02;97.40;41095.19;5092904;28;20229;-74
2023/12/26 08:03:40;;;;;;;21.60;20.00;;;;;;;-141.02;97.05;41077.91;5093379;28;20197;-74
2023/12/26 08:06:07;;;;;;;21.33;19.63;;;;;;;-141.02;96.67;41100.94;5093309;28;20190;-74
2023/12/26 08:08:36;;;;;;;21.40;19.70;;;;;;;-141.02;91.91;41110.53;5092882;28;20201;-70
2023/12/26 08:11:03;;;;;;;21.35;19.67;;;;;;;-141.02;93.67;41135.47;5093193;28;20198;-74
2023/12/26 08:13:30;;;;;;;20.60;19.00;;;;;;;-141.02;94.27;41141.22;5093059;28;20307;-73
2023/12/26 08:15:57;;;;;;;20.60;19.00;;;;;;;-141.02;96.57;41152.75;5093247;28;20193;-71
2023/12/26 08:18:24;;;;;;;20.50;19.00;;;;;;;-141.02;97.63;41108.59;5092738;28;20209;-74
2023/12/26 08:20:51;;;;;;;20.60;19.00;;;;;;;-141.02;94.81;41162.34;5093161;28;20194;-74
2023/12/26 08:23:18;;;;;;;21.00;19.35;;;;;;;-141.02;95.68;41154.66;5092934;28;20204;-73
2023/12/26 08:25:46;;;;;;;21.35;19.65;;;;;;;-141.02;90.94;41200.72;5092592;28;20619;-73
2023/12/26 08:28:13;;;;;;;20.60;18.90;;;;;;;-141.02;92.00;41170.00;5092579;28;20303;-74
2023/12/26 08:30:40;;;;;;;21.83;20.13;;;;;;;-141.02;90.16;41233.31;5092549;28;20664;-76
2023/12/26 08:33:07;;;;;;;21.80;20.00;;;;;;;-141.02;91.24;41219.91;5092377;28;20653;-76
2023/12/26 08:35:35;;;;;;;22.80;20.90;;;;;;;-141.02;88.42;41250.59;5092711;28;20232;-76
2023/12/26 08:38:02;;;;;;;22.75;20.85;;;;;;;-141.02;88.16;41246.75;5092709;28;20194;-74
2023/12/26 08:40:29;;;;;;;22.38;20.48;;;;;;;-141.02;82.75;41277.47;5092323;28;20281;-76
2023/12/26 08:42:57;;;;;;;22.42;20.52;;;;;;;-141.02;82.58;41273.63;5092362;28;20225;-76
2023/12/26 08:45:24;;;;;;;22.20;20.30;;;;;;;-141.02;80.24;41281.31;5092285;28;20190;-74
2023/12/26 08:47:53;;;;;;;23.27;21.35;;;;;;;-141.02;78.08;41300.50;5092608;28;20193;-76
2023/12/26 08:50:20;;;;;;;22.98;21.08;;;;;;;-141.02;79.72;41310.09;5092434;28;20193;-74
2023/12/26 08:52:47;;;;;;;22.83;20.92;;;;;;;-141.02;80.06;41323.50;5092402;28;20253;-75
2023/12/26 08:55:16;;;;;;;24.02;22.02;;;;;;;-141.02;76.97;41365.72;5092459;28;20233;-75
2023/12/26 08:57:43;;;;;;;23.15;21.25;;;;;;;-141.02;77.50;41346.53;5092114;28;20271;-75
2023/12/26 09:00:14;;;;;;;23.70;21.70;;;;;;;-141.02;74.31;41342.69;5092088;28;20198;-78
2023/12/26 09:02:42;;;;;;;24.90;22.80;;;;;;;-141.02;72.06;41344.63;5092682;28;20196;-77
2023/12/26 09:05:10;;;;;;;22.50;20.60;;;;;;;-141.02;72.92;41381.09;5092358;28;20197;-78
2023/12/26 09:07:37;;;;;;;25.98;23.88;;;;;;;-141.02;70.54;41388.75;5092231;28;20262;-76
2023/12/26 09:10:05;;;;;;;23.58;21.52;;;;;;;-141.02;68.77;41411.78;5092291;28;20194;-77
2023/12/26 09:12:32;;;;;;;24.40;22.30;;;;;;;-141.02;66.90;41419.47;5094237;28;20221;-78
2023/12/26 09:14:59;;;;;;;23.90;21.80;;;;;;;-141.02;67.12;41467.44;5096765;28;20259;-78
2023/12/26 09:17:27;;;;;;;23.80;21.70;;;;;;;-141.02;70.16;41459.75;5096560;28;20240;-79
2023/12/26 09:19:54;;;;;;;23.15;21.15;;;;;;;-141.02;73.92;41438.66;5096413;28;20194;-79
2023/12/26 09:22:21;;;;;;;23.80;21.70;;;;;;;-141.02;75.36;41457.84;5096380;28;20250;-74
2023/12/26 09:24:48;;;;;;;22.88;20.88;;;;;;;-141.02;76.64;41463.59;5096048;28;20244;-76
2023/12/26 09:27:15;;;;;;;23.10;21.10;;;;;;;-141.02;78.05;41467.44;5095953;28;20282;-79
2023/12/26 09:33:06;;;;;;;22.27;20.38;;;;;;;-141.02;77.32;41469.34;5095965;28;20208;-76
2023/12/26 09:35:33;;;;;;;23.90;21.90;;;;;;;-141.02;75.06;41505.81;5096273;28;20247;-77
2023/12/26 09:38:00;;;;;;;24.42;22.33;;;;;;;-141.02;75.49;41484.72;5095821;28;20664;-75
2023/12/26 09:40:27;;;;;;;24.20;22.10;;;;;;;-141.02;76.45;41500.06;5096070;28;20189;-81
2023/12/26 09:43:00;;;;;;;25.00;22.80;;;;;;;-141.02;74.95;41498.13;5095720;28;20210;-76
2023/12/26 09:45:27;;;;;;;22.90;20.90;;;;;;;-141.02;74.66;41496.22;5095713;28;20208;-79
2023/12/26 09:47:55;;;;;;;23.20;21.20;;;;;;;-141.02;74.24;41500.06;5095568;28;20671;-76
2023/12/26 09:50:24;;;;;;;24.30;22.20;;;;;;;-141.02;71.06;41511.56;5096059;28;20225;-81
2023/12/26 09:52:53;;;;;;;23.90;21.80;;;;;;;-141.02;67.67;41513.50;5095727;28;20193;-76
2023/12/26 09:55:21;;;;;;;25.38;23.17;;;;;;;-141.02;71.20;41526.91;5095522;28;20194;-75
2023/12/26 09:57:48;;;;;;;23.55;21.45;;;;;;;-141.02;65.93;41542.28;5095436;28;20243;-81
2023/12/26 10:00:16;;;;;;;24.70;22.50;;;;;;;-141.02;68.40;41561.47;5095756;28;20240;-77
2023/12/26 10:02:43;;;;;;;26.55;24.25;;;;;;;-141.02;67.53;41523.09;5095280;28;20660;-77
2023/12/26 10:05:11;;;;;;;25.20;23.00;;;;;;;-141.02;67.02;41572.97;5095323;28;20196;-80
2023/12/26 10:07:39;;;;;;;24.73;22.63;;;;;;;-141.02;68.35;41557.63;5095990;28;20555;-77
2023/12/26 10:10:07;;;;;;;25.85;23.55;;;;;;;-141.02;69.03;41553.78;5095209;28;20647;-80
2023/12/26 10:12:35;;;;;;;25.98;23.67;;;;;;;-141.02;65.77;41576.81;5095456;28;20666;-81
2023/12/26 10:15:04;;;;;;;25.48;23.20;;;;;;;-141.02;64.01;41571.06;5095511;28;20252;-81
2023/12/26 10:17:31;;;;;;;25.35;23.15;;;;;;;-141.02;66.94;41619.03;5095363;28;20198;-78
2023/12/26 10:19:58;;;;;;;25.77;23.48;;;;;;;-141.02;63.62;41626.72;5095336;28;20194;-82
2023/12/26 10:22:26;;;;;;;27.17;24.77;;;;;;;-141.02;62.92;41636.31;5094824;28;20694;-78
2023/12/26 10:24:55;;;;;;;25.05;22.75;;;;;;;-141.02;62.89;41626.72;5095180;28;20644;-80
2023/12/26 10:27:23;;;;;;;24.85;22.55;;;;;;;-141.02;64.20;41622.88;5094687;28;20747;-83
2023/12/26 10:29:54;;;;;;;25.02;22.73;;;;;;;-141.02;62.90;41642.06;5094793;28;20656;-80
2023/12/26 10:32:24;;;;;;;25.35;23.05;;;;;;;-141.02;63.05;41661.25;5094737;28;20256;-79
2023/12/26 10:34:51;;;;;;;24.98;22.67;;;;;;;-141.02;63.38;41665.09;5094918;28;20282;-81
2023/12/26 10:37:21;;;;;;;25.55;23.15;;;;;;;-141.02;60.53;41699.63;5094975;28;20227;-80
2023/12/26 10:39:49;;;;;;;25.98;23.58;;;;;;;-141.02;59.17;41686.19;5094666;28;20197;-80
2023/12/26 10:42:18;;;;;;;26.40;23.90;;;;;;;-141.02;57.32;41703.47;5094882;28;20255;-79
2023/12/26 10:45:04;;;;;;;26.42;24.02;;;;;;;-141.02;56.59;41741.84;5094820;28;20206;-76
2023/12/26 10:47:32;;;;;;;26.42;23.92;;;;;;;-141.02;58.29;41734.19;5094595;28;20651;-76
2023/12/26 10:50:01;;;;;;;25.98;23.58;;;;;;;-141.02;59.63;41770.66;5095047;28;20271;-85
2023/12/26 10:52:29;;;;;;;28.05;25.45;;;;;;;-141.02;59.09;41768.72;5094358;28;20674;-79
2023/12/26 10:54:58;;;;;;;27.25;24.75;;;;;;;-141.02;58.87;41820.53;5094423;28;20225;-81
2023/12/26 10:57:29;;;;;;;27.15;24.65;;;;;;;-141.02;58.47;41791.75;5094224;28;20704;-78
2023/12/26 13:51:51;;;;;;;28.65;26.05;;;;;;;-141.02;53.54;42469.28;5092009;28;20273;-75
2023/12/26 13:54:17;;;;;;;28.25;25.75;;;;;;;-141.02;53.46;42356.03;5091529;28;20278;-74
2023/12/26 13:56:44;;;;;;;29.02;26.42;;;;;;;-141.02;53.95;42367.56;5091837;28;20205;-79